Beachwood, New Jersey
Current Conditions -  °F | °C
As of 10:55 AM on Friday 24 Oct 2014 (Local Time) from KMJX Reporting Station
Overcast Overcast  
Wind Chill: 55°   Ceiling: 3200
Heat Index: 55°   Visibility: 10mi
Dew Point: 43°   Wind: 8mph
Humidity: 63%   Direction: 350°N
Pressure: 29.85"   Gusts: 17mph
Location:  39.92°N, 74.21°W
Report Text: KMJX 241455Z AUTO 35007G15KT 10SM OVC032 13/06 A2985 RMK AO1 52007
Loading
Personal Weather Stations






























Interactive Weather Map
Tropical Storm Tracking
New forecast layout! Learn more

10-Day Weather Forecast

Advertisements
Track Severe Weather on mobile